createdAt,value
2018-06-27T00:00:03.275Z,915.05
2018-06-27T00:01:03.292Z,915.01
2018-06-27T00:02:03.244Z,915.01
2018-06-27T00:03:03.177Z,915.07
2018-06-27T00:04:03.141Z,915.01
2018-06-27T00:05:03.116Z,915.00
2018-06-27T00:06:03.081Z,915.07
2018-06-27T00:07:03.050Z,915.07
2018-06-27T00:08:03.254Z,915.08
2018-06-27T00:09:03.188Z,915.05
2018-06-27T00:10:02.969Z,915.12
2018-06-27T00:11:02.943Z,915.09
2018-06-27T00:12:02.908Z,915.12
2018-06-27T00:13:02.867Z,915.12
2018-06-27T00:14:03.021Z,915.13
2018-06-27T00:15:02.806Z,915.12
2018-06-27T00:16:02.791Z,915.15
2018-06-27T00:17:02.740Z,915.16
2018-06-27T00:18:02.715Z,915.17
2018-06-27T00:19:02.688Z,915.16
2018-06-27T00:20:02.657Z,915.17
2018-06-27T00:21:02.670Z,915.17
2018-06-27T00:22:02.642Z,915.22
2018-06-27T00:23:02.560Z,915.20
2018-06-27T00:25:02.499Z,915.24
2018-06-27T00:26:02.480Z,915.25
2018-06-27T00:27:02.448Z,915.24
2018-06-27T00:28:02.424Z,915.24
2018-06-27T00:29:02.375Z,915.27
2018-06-27T00:30:02.495Z,915.26
2018-06-27T00:31:02.315Z,915.26
2018-06-27T00:32:02.280Z,915.29
2018-06-27T00:33:02.252Z,915.33
2018-06-27T00:34:02.219Z,915.31
2018-06-27T00:35:02.207Z,915.32
2018-06-27T00:36:02.163Z,915.31
2018-06-27T00:37:02.155Z,915.34
2018-06-27T00:38:02.096Z,915.32
2018-06-27T00:39:02.276Z,915.39
2018-06-27T00:40:02.047Z,915.36
2018-06-27T00:41:02.123Z,915.37
2018-06-27T00:42:01.983Z,915.36
2018-06-27T00:43:01.949Z,915.40
2018-06-27T00:44:01.918Z,915.39
2018-06-27T00:45:01.886Z,915.38
2018-06-27T00:46:01.857Z,915.40
2018-06-27T00:47:02.018Z,915.39
2018-06-27T00:48:01.794Z,915.39
2018-06-27T00:49:01.764Z,915.42
2018-06-27T00:50:01.772Z,915.42
2018-06-27T00:51:01.687Z,915.43
2018-06-27T00:52:01.671Z,915.46
2018-06-27T00:53:01.638Z,915.44
2018-06-27T00:54:01.597Z,915.43
2018-06-27T00:55:01.574Z,915.44
2018-06-27T00:56:01.567Z,915.44
2018-06-27T00:57:01.519Z,915.46
2018-06-27T00:58:01.482Z,915.48
2018-06-27T00:59:01.443Z,915.48
2018-06-27T01:00:01.415Z,915.48
2018-06-27T01:01:01.382Z,915.47
2018-06-27T01:02:01.373Z,915.48
2018-06-27T01:03:01.320Z,915.49
2018-06-27T01:04:01.288Z,915.50
2018-06-27T01:05:01.263Z,915.49
2018-06-27T01:06:01.228Z,915.47
2018-06-27T01:07:01.220Z,915.49
2018-06-27T01:08:01.179Z,915.47
2018-06-27T01:09:01.144Z,915.49
2018-06-27T01:10:01.266Z,915.50
2018-06-27T01:11:01.073Z,915.51
2018-06-27T01:12:01.042Z,915.49
2018-06-27T01:13:01.025Z,915.46
2018-06-27T01:14:00.980Z,915.51
2018-06-27T01:15:00.956Z,915.49
2018-06-27T01:16:00.907Z,915.46
2018-06-27T01:17:00.883Z,915.48
2018-06-27T01:18:00.862Z,915.47
2018-06-27T01:19:00.821Z,915.48
2018-06-27T01:20:00.856Z,915.50
2018-06-27T01:21:00.762Z,915.46
2018-06-27T01:22:00.729Z,915.53
2018-06-27T01:23:00.705Z,915.53
2018-06-27T01:24:00.662Z,915.56
2018-06-27T01:25:00.650Z,915.54
2018-06-27T01:26:00.609Z,915.54
2018-06-27T01:27:00.583Z,915.55
2018-06-27T01:28:00.550Z,915.51
2018-06-27T01:29:00.522Z,915.49
2018-06-27T01:30:00.632Z,915.52
2018-06-27T01:31:00.447Z,915.51
2018-06-27T01:32:00.434Z,915.52
2018-06-27T01:33:00.405Z,915.49
2018-06-27T01:34:00.353Z,915.52
2018-06-27T01:35:00.330Z,915.50
2018-06-27T01:36:00.302Z,915.49
2018-06-27T01:37:00.253Z,915.50
2018-06-27T01:38:00.228Z,915.48
2018-06-27T01:39:00.199Z,915.48
2018-06-27T01:40:00.179Z,915.51
2018-06-27T01:41:00.137Z,915.46
2018-06-27T01:42:00.106Z,915.46
2018-06-27T01:43:00.075Z,915.42
2018-06-27T01:44:00.052Z,915.45
2018-06-27T01:45:00.019Z,915.41
2018-06-27T01:45:59.973Z,915.39
2018-06-27T01:46:59.942Z,915.41
2018-06-27T01:47:59.918Z,915.41
2018-06-27T01:48:59.884Z,915.38
2018-06-27T01:49:59.852Z,915.43
2018-06-27T01:50:59.832Z,915.41
2018-06-27T01:51:59.786Z,915.38
2018-06-27T01:52:59.770Z,915.37
2018-06-27T01:53:59.723Z,915.37
2018-06-27T01:54:59.693Z,915.37
2018-06-27T01:55:59.667Z,915.39
2018-06-27T01:56:59.629Z,915.38
2018-06-27T01:57:59.609Z,915.40
2018-06-27T01:58:59.579Z,915.38
2018-06-27T01:59:59.551Z,915.38
2018-06-27T02:00:59.505Z,915.36
2018-06-27T02:01:59.832Z,915.36
2018-06-27T02:02:59.438Z,915.38
2018-06-27T02:03:59.412Z,915.39
2018-06-27T02:04:59.379Z,915.40
2018-06-27T02:05:59.349Z,915.48
2018-06-27T02:06:59.323Z,915.49
2018-06-27T02:07:59.338Z,915.47
2018-06-27T02:08:59.249Z,915.46
2018-06-27T02:09:59.236Z,915.47
2018-06-27T02:10:59.273Z,915.44
2018-06-27T02:11:59.173Z,915.44
2018-06-27T02:12:59.119Z,915.48
2018-06-27T02:13:59.134Z,915.49
2018-06-27T02:14:59.067Z,915.46
2018-06-27T02:15:59.042Z,915.44
2018-06-27T02:16:58.997Z,915.47
2018-06-27T02:17:58.975Z,915.46
2018-06-27T02:18:59.144Z,915.50
2018-06-27T02:19:58.902Z,915.46
2018-06-27T02:20:58.877Z,915.45
2018-06-27T02:21:58.848Z,915.44
2018-06-27T02:22:58.812Z,915.49
2018-06-27T02:23:58.920Z,915.48
2018-06-27T02:24:58.748Z,915.48
2018-06-27T02:25:58.729Z,915.45
2018-06-27T02:26:58.688Z,915.47
2018-06-27T02:27:58.649Z,915.50
2018-06-27T02:28:58.627Z,915.48
2018-06-27T02:29:58.598Z,915.46
2018-06-27T02:30:58.562Z,915.45
2018-06-27T02:31:58.523Z,915.47
2018-06-27T02:32:58.714Z,915.43
2018-06-27T02:33:58.463Z,915.46
2018-06-27T02:34:58.578Z,915.49
2018-06-27T02:35:58.398Z,915.46
2018-06-27T02:36:58.364Z,915.44
2018-06-27T02:37:58.344Z,915.44
2018-06-27T02:38:58.302Z,915.44
2018-06-27T02:39:58.289Z,915.44
2018-06-27T02:40:58.242Z,915.40
2018-06-27T02:41:58.214Z,915.42
2018-06-27T02:42:58.172Z,915.37
2018-06-27T02:43:58.150Z,915.36
2018-06-27T02:44:58.124Z,915.36
2018-06-27T02:45:58.078Z,915.35
2018-06-27T02:46:58.051Z,915.35
2018-06-27T02:47:58.017Z,915.37
2018-06-27T02:48:57.983Z,915.35
2018-06-27T02:49:57.950Z,915.31
2018-06-27T02:50:57.930Z,915.30
2018-06-27T02:51:57.882Z,915.32
2018-06-27T02:52:57.871Z,915.33
2018-06-27T02:53:57.841Z,915.28
2018-06-27T02:54:57.785Z,915.32
2018-06-27T02:55:57.966Z,915.32
2018-06-27T02:56:57.740Z,915.29
2018-06-27T02:57:57.706Z,915.31
2018-06-27T02:58:57.734Z,915.31
2018-06-27T02:59:57.640Z,915.33
2018-06-27T03:00:57.597Z,915.32
2018-06-27T03:01:57.566Z,915.29
2018-06-27T03:02:57.621Z,915.29
2018-06-27T03:03:57.498Z,915.30
2018-06-27T03:04:57.468Z,915.29
2018-06-27T03:05:57.446Z,915.23
2018-06-27T03:06:57.460Z,915.29
2018-06-27T03:07:57.375Z,915.29
2018-06-27T03:08:57.353Z,915.30
2018-06-27T03:09:57.320Z,915.30
2018-06-27T03:10:57.278Z,915.25
2018-06-27T03:11:57.251Z,915.27
2018-06-27T03:12:57.219Z,915.25
2018-06-27T03:13:57.183Z,915.28
2018-06-27T03:14:57.150Z,915.26
2018-06-27T03:15:57.127Z,915.26
2018-06-27T03:16:57.086Z,915.24
2018-06-27T03:17:57.053Z,915.21
2018-06-27T03:18:57.088Z,915.22
2018-06-27T03:19:56.995Z,915.23
2018-06-27T03:20:56.961Z,915.20
2018-06-27T03:21:56.924Z,915.22
2018-06-27T03:22:56.900Z,915.21
2018-06-27T03:23:56.866Z,915.21
2018-06-27T03:24:56.847Z,915.17
2018-06-27T03:25:56.799Z,915.17
2018-06-27T03:26:57.114Z,915.18
2018-06-27T03:27:56.735Z,915.17
2018-06-27T03:28:56.703Z,915.18
2018-06-27T03:29:56.675Z,915.18
2018-06-27T03:30:56.645Z,915.22
2018-06-27T03:31:56.637Z,915.20
2018-06-27T03:32:56.575Z,915.17
2018-06-27T03:33:56.550Z,915.21
2018-06-27T03:34:56.510Z,915.19
2018-06-27T03:35:56.475Z,915.16
2018-06-27T03:36:56.445Z,915.14
2018-06-27T03:37:56.427Z,915.16
2018-06-27T03:38:56.386Z,915.12
2018-06-27T03:39:56.349Z,915.09
2018-06-27T03:40:56.313Z,915.11
2018-06-27T03:41:56.280Z,915.12
2018-06-27T03:42:56.260Z,915.10
2018-06-27T03:43:56.219Z,915.12
2018-06-27T03:44:56.188Z,915.07
2018-06-27T03:45:56.166Z,915.06
2018-06-27T03:46:56.138Z,915.09
2018-06-27T03:47:56.086Z,915.04
2018-06-27T03:48:56.062Z,915.04
2018-06-27T03:49:56.026Z,915.02
2018-06-27T03:50:55.995Z,914.99
2018-06-27T03:51:55.959Z,915.01
2018-06-27T03:52:55.936Z,915.01
2018-06-27T03:53:55.892Z,914.99
2018-06-27T03:54:55.868Z,914.99
2018-06-27T03:55:55.833Z,914.98
2018-06-27T03:56:55.800Z,914.96
2018-06-27T03:57:55.775Z,914.94
2018-06-27T03:58:55.781Z,914.96
2018-06-27T03:59:55.701Z,914.96
2018-06-27T04:00:55.674Z,914.98
2018-06-27T04:01:55.634Z,914.97
2018-06-27T04:02:55.601Z,914.95
2018-06-27T04:03:56.034Z,914.96
2018-06-27T04:04:55.574Z,914.96
2018-06-27T04:05:55.504Z,914.92
2018-06-27T04:06:55.484Z,914.93
2018-06-27T04:07:55.446Z,914.92
2018-06-27T04:08:55.413Z,914.93
2018-06-27T04:09:55.392Z,914.93
2018-06-27T04:10:55.355Z,914.93
2018-06-27T04:11:55.315Z,914.93
2018-06-27T04:12:55.312Z,914.92
2018-06-27T04:13:55.254Z,914.91
2018-06-27T04:14:55.214Z,914.91
2018-06-27T04:15:55.186Z,914.89
2018-06-27T04:16:55.149Z,914.93
2018-06-27T04:17:55.155Z,914.93
2018-06-27T04:18:55.088Z,914.89
2018-06-27T04:19:55.055Z,914.90
2018-06-27T04:20:55.021Z,914.94
2018-06-27T04:21:55.001Z,914.91
2018-06-27T04:22:54.960Z,914.91
2018-06-27T04:23:54.928Z,914.88
2018-06-27T04:24:55.099Z,914.88
2018-06-27T04:25:54.865Z,914.90
2018-06-27T04:26:54.826Z,914.91
2018-06-27T04:27:54.794Z,914.90
2018-06-27T04:28:54.762Z,914.91
2018-06-27T04:29:54.726Z,914.90
2018-06-27T04:30:54.694Z,914.90
2018-06-27T04:31:54.672Z,914.85
2018-06-27T04:32:54.636Z,914.85
2018-06-27T04:33:54.608Z,914.86
2018-06-27T04:34:54.572Z,914.84
2018-06-27T04:35:54.557Z,914.87
2018-06-27T04:36:54.505Z,914.84
2018-06-27T04:37:54.467Z,914.89
2018-06-27T04:38:54.438Z,914.84
2018-06-27T04:39:54.405Z,914.86
2018-06-27T04:41:54.336Z,914.82
2018-06-27T04:42:54.313Z,914.82
2018-06-27T04:43:54.271Z,914.79
2018-06-27T04:44:54.245Z,914.77
2018-06-27T04:45:54.210Z,914.80
2018-06-27T04:46:54.187Z,914.80
2018-06-27T04:47:54.141Z,914.77
2018-06-27T04:48:54.119Z,914.76
2018-06-27T04:49:54.093Z,914.76
2018-06-27T04:50:54.052Z,914.74
2018-06-27T04:51:54.016Z,914.75
2018-06-27T04:52:53.985Z,914.76
2018-06-27T04:53:53.945Z,914.72
2018-06-27T04:54:53.920Z,914.75
2018-06-27T04:55:53.885Z,914.75
2018-06-27T04:56:53.854Z,914.71
2018-06-27T04:57:53.828Z,914.70
2018-06-27T04:58:53.785Z,914.70
2018-06-27T04:59:53.782Z,914.68
2018-06-27T05:00:53.725Z,914.67
2018-06-27T05:01:53.684Z,914.64
2018-06-27T05:02:53.662Z,914.65
2018-06-27T05:03:53.631Z,914.67
2018-06-27T05:04:53.592Z,914.62
2018-06-27T05:05:53.558Z,914.64
2018-06-27T05:06:53.521Z,914.61
2018-06-27T05:07:53.498Z,914.59
2018-06-27T05:08:53.460Z,914.59
2018-06-27T05:09:53.424Z,914.60
2018-06-27T05:10:53.408Z,914.63
2018-06-27T05:11:53.364Z,914.62
2018-06-27T05:12:53.728Z,914.62
2018-06-27T05:13:53.303Z,914.62
2018-06-27T05:14:53.281Z,914.66
2018-06-27T05:15:53.235Z,914.62
2018-06-27T05:16:53.336Z,914.66
2018-06-27T05:17:53.173Z,914.62
2018-06-27T05:18:53.336Z,914.66
2018-06-27T05:19:53.118Z,914.66
2018-06-27T05:20:53.068Z,914.66
2018-06-27T05:21:53.037Z,914.66
2018-06-27T05:22:53.006Z,914.63
2018-06-27T05:23:52.965Z,914.64
2018-06-27T05:24:52.964Z,914.64
2018-06-27T05:25:52.904Z,914.63
2018-06-27T05:26:52.874Z,914.62
2018-06-27T05:27:52.856Z,914.61
2018-06-27T05:28:53.041Z,914.60
2018-06-27T05:29:52.783Z,914.64
2018-06-27T05:30:52.739Z,914.64
2018-06-27T05:31:52.708Z,914.65
2018-06-27T05:32:52.677Z,914.65
2018-06-27T05:33:52.678Z,914.64
2018-06-27T05:34:53.016Z,914.62
2018-06-27T05:35:52.579Z,914.60
2018-06-27T05:36:52.541Z,914.60
2018-06-27T05:37:52.506Z,914.56
2018-06-27T05:38:52.475Z,914.59
2018-06-27T05:39:52.455Z,914.61
2018-06-27T05:40:52.463Z,914.60
2018-06-27T05:41:52.374Z,914.61
2018-06-27T05:42:52.346Z,914.60
2018-06-27T05:43:52.311Z,914.60
2018-06-27T05:44:52.340Z,914.59
2018-06-27T05:45:52.255Z,914.62
2018-06-27T05:46:52.210Z,914.56
2018-06-27T05:47:52.190Z,914.60
2018-06-27T05:48:52.151Z,914.55
2018-06-27T05:49:52.147Z,914.55
2018-06-27T05:50:52.081Z,914.59
2018-06-27T05:51:52.055Z,914.57
2018-06-27T05:52:52.035Z,914.56
2018-06-27T05:53:51.983Z,914.53
2018-06-27T05:54:51.957Z,914.57
2018-06-27T05:55:51.924Z,914.54
2018-06-27T05:56:52.150Z,914.53
2018-06-27T05:57:51.916Z,914.54
2018-06-27T05:58:51.829Z,914.53
2018-06-27T05:59:51.787Z,914.51
2018-06-27T06:00:51.758Z,914.55
2018-06-27T06:01:51.729Z,914.55
2018-06-27T06:02:51.693Z,914.53
2018-06-27T06:03:51.657Z,914.56
2018-06-27T06:04:51.621Z,914.56
2018-06-27T06:05:51.594Z,914.54
2018-06-27T06:06:51.566Z,914.51
2018-06-27T06:07:51.928Z,914.55
2018-06-27T06:08:51.494Z,914.54
2018-06-27T06:09:51.462Z,914.51
2018-06-27T06:10:51.430Z,914.51
2018-06-27T06:11:51.399Z,914.53
2018-06-27T06:12:51.381Z,914.52
2018-06-27T06:13:51.529Z,914.50
2018-06-27T06:14:51.295Z,914.51
2018-06-27T06:15:51.266Z,914.47
2018-06-27T06:16:51.231Z,914.49
2018-06-27T06:17:51.194Z,914.48
2018-06-27T06:18:51.218Z,914.50
2018-06-27T06:19:51.180Z,914.49
2018-06-27T06:20:51.103Z,914.52
2018-06-27T06:21:51.064Z,914.49
2018-06-27T06:22:51.049Z,914.47
2018-06-27T06:23:50.999Z,914.48
2018-06-27T06:24:50.982Z,914.48
2018-06-27T06:25:50.988Z,914.45
2018-06-27T06:26:50.903Z,914.46
2018-06-27T06:27:50.873Z,914.45
2018-06-27T06:28:50.944Z,914.45
2018-06-27T06:29:50.811Z,914.41
2018-06-27T06:30:50.770Z,914.42
2018-06-27T06:31:50.745Z,914.43
2018-06-27T06:32:50.706Z,914.42
2018-06-27T06:33:50.670Z,914.40
2018-06-27T06:34:50.706Z,914.41
2018-06-27T06:35:50.619Z,914.43
2018-06-27T06:36:50.570Z,914.42
2018-06-27T06:37:50.541Z,914.45
2018-06-27T06:38:50.509Z,914.45
2018-06-27T06:39:50.678Z,914.42
2018-06-27T06:40:50.502Z,914.45
2018-06-27T06:41:50.408Z,914.47
2018-06-27T06:42:50.370Z,914.46
2018-06-27T06:43:50.344Z,914.45
2018-06-27T06:44:50.308Z,914.49
2018-06-27T06:45:50.370Z,914.51
2018-06-27T06:46:50.248Z,914.49
2018-06-27T06:47:50.214Z,914.54
2018-06-27T06:48:50.184Z,914.55
2018-06-27T06:49:50.142Z,914.54
2018-06-27T06:50:50.376Z,914.51
2018-06-27T06:51:50.077Z,914.54
2018-06-27T06:52:50.051Z,914.54
2018-06-27T06:53:50.014Z,914.50
2018-06-27T06:54:49.989Z,914.54
2018-06-27T06:55:49.951Z,914.53
2018-06-27T06:57:49.886Z,914.55
2018-06-27T06:58:49.915Z,914.55
2018-06-27T06:59:49.820Z,914.54
2018-06-27T07:00:49.781Z,914.55
2018-06-27T07:01:49.746Z,914.53
2018-06-27T07:02:49.721Z,914.52
2018-06-27T07:03:49.697Z,914.55
2018-06-27T07:04:49.732Z,914.57
2018-06-27T07:05:49.620Z,914.57
2018-06-27T07:06:49.587Z,914.54
2018-06-27T07:07:49.558Z,914.57
2018-06-27T07:08:49.538Z,914.53
2018-06-27T07:09:49.490Z,914.52
2018-06-27T07:10:49.513Z,914.54
2018-06-27T07:11:49.421Z,914.55
2018-06-27T07:12:49.387Z,914.59
2018-06-27T07:13:49.364Z,914.60
2018-06-27T07:14:49.333Z,914.58
2018-06-27T07:15:49.297Z,914.62
2018-06-27T07:16:49.457Z,914.61
2018-06-27T07:17:49.246Z,914.62
2018-06-27T07:18:49.203Z,914.65
2018-06-27T07:19:49.166Z,914.69
2018-06-27T07:20:49.134Z,914.69
2018-06-27T07:22:49.059Z,914.67
2018-06-27T07:23:49.023Z,914.68
2018-06-27T07:24:49.000Z,914.73
2018-06-27T07:25:48.967Z,914.69
2018-06-27T07:26:48.925Z,914.70
2018-06-27T07:27:48.944Z,914.72
2018-06-27T07:28:48.878Z,914.69
2018-06-27T07:29:48.878Z,914.72
2018-06-27T07:30:48.799Z,914.74
2018-06-27T07:31:48.763Z,914.70
2018-06-27T07:32:48.882Z,914.73
2018-06-27T07:33:48.710Z,914.74
2018-06-27T07:34:48.681Z,914.73
2018-06-27T07:35:48.720Z,914.75
2018-06-27T07:36:48.596Z,914.75
2018-06-27T07:37:48.565Z,914.76
2018-06-27T07:38:48.748Z,914.77
2018-06-27T07:39:48.510Z,914.75
2018-06-27T07:40:48.481Z,914.74
2018-06-27T07:41:48.433Z,914.74
2018-06-27T07:42:48.399Z,914.75
2018-06-27T07:43:48.387Z,914.74
2018-06-27T07:44:48.443Z,914.77
2018-06-27T07:45:48.303Z,914.77
2018-06-27T07:46:48.270Z,914.75
2018-06-27T07:47:48.249Z,914.78
2018-06-27T07:48:48.204Z,914.80
2018-06-27T07:49:48.186Z,914.83
2018-06-27T07:50:48.343Z,914.79
2018-06-27T07:51:48.105Z,914.84
2018-06-27T07:52:48.075Z,914.78
2018-06-27T07:53:48.039Z,914.82
2018-06-27T07:54:48.009Z,914.82
2018-06-27T07:55:47.981Z,914.83
2018-06-27T07:56:47.946Z,914.83
2018-06-27T07:57:47.905Z,914.85
2018-06-27T07:58:47.872Z,914.85
2018-06-27T07:59:47.840Z,914.85
2018-06-27T08:00:47.820Z,914.87
2018-06-27T08:01:47.787Z,914.87
2018-06-27T08:02:47.744Z,914.92
2018-06-27T08:03:47.744Z,914.91
2018-06-27T08:04:47.677Z,914.88
2018-06-27T08:05:47.726Z,914.90
2018-06-27T08:06:47.924Z,914.92
2018-06-27T08:07:47.578Z,914.90
2018-06-27T08:08:47.556Z,914.92
2018-06-27T08:09:47.523Z,914.90
2018-06-27T08:10:47.478Z,914.88
2018-06-27T08:11:47.449Z,914.88
2018-06-27T08:12:47.419Z,914.91
2018-06-27T08:13:47.378Z,914.92
2018-06-27T08:14:47.354Z,914.91
2018-06-27T08:15:47.313Z,914.93
2018-06-27T08:16:47.285Z,914.91
2018-06-27T08:17:47.262Z,914.92
2018-06-27T08:18:47.225Z,914.91
2018-06-27T08:19:47.193Z,914.94
2018-06-27T08:20:47.146Z,914.92
2018-06-27T08:21:47.124Z,914.92
2018-06-27T08:22:47.082Z,914.94
2018-06-27T08:23:47.055Z,914.93
2018-06-27T08:24:47.018Z,914.93
2018-06-27T08:25:46.990Z,914.94
2018-06-27T08:26:46.952Z,914.94
2018-06-27T08:27:46.918Z,914.93
2018-06-27T08:28:46.888Z,914.93
2018-06-27T08:29:46.862Z,914.96
2018-06-27T08:30:46.821Z,914.98
2018-06-27T08:31:46.795Z,914.98
2018-06-27T08:32:46.772Z,914.97
2018-06-27T08:33:47.037Z,914.99
2018-06-27T08:34:46.690Z,915.01
2018-06-27T08:35:46.660Z,915.03
2018-06-27T08:36:46.620Z,915.04
2018-06-27T08:37:46.590Z,915.06
2018-06-27T08:38:46.554Z,915.06
2018-06-27T08:39:46.739Z,915.07
2018-06-27T08:40:46.487Z,915.04
2018-06-27T08:41:46.459Z,915.05
2018-06-27T08:42:46.431Z,915.06
2018-06-27T08:43:46.416Z,915.05
2018-06-27T08:44:46.364Z,915.10
2018-06-27T08:46:46.290Z,915.10
2018-06-27T08:47:46.281Z,915.13
2018-06-27T08:48:46.242Z,915.14
2018-06-27T08:49:46.202Z,915.12
2018-06-27T08:50:46.155Z,915.14
2018-06-27T08:51:46.133Z,915.17
2018-06-27T08:52:46.106Z,915.10
2018-06-27T08:53:46.086Z,915.15
2018-06-27T08:54:46.034Z,915.11
2018-06-27T08:55:46.004Z,915.13
2018-06-27T08:56:45.959Z,915.16
2018-06-27T08:57:45.931Z,915.14
2018-06-27T08:58:45.919Z,915.12
2018-06-27T08:59:45.865Z,915.18
2018-06-27T09:00:45.834Z,915.20
2018-06-27T09:01:46.010Z,915.20
2018-06-27T09:02:45.784Z,915.17
2018-06-27T09:03:45.726Z,915.22
2018-06-27T09:04:45.698Z,915.21
2018-06-27T09:05:45.662Z,915.22
2018-06-27T09:06:45.633Z,915.21
2018-06-27T09:07:45.648Z,915.22
2018-06-27T09:08:45.573Z,915.23
2018-06-27T09:09:45.538Z,915.20
2018-06-27T09:10:45.508Z,915.21
2018-06-27T09:11:45.487Z,915.19
2018-06-27T09:12:45.433Z,915.18
2018-06-27T09:13:45.408Z,915.25
2018-06-27T09:14:45.377Z,915.25
2018-06-27T09:15:45.339Z,915.28
2018-06-27T09:16:45.311Z,915.26
2018-06-27T09:17:45.280Z,915.25
2018-06-27T09:18:45.435Z,915.24
2018-06-27T09:19:45.201Z,915.28
2018-06-27T09:20:45.169Z,915.30
2018-06-27T09:21:45.141Z,915.35
2018-06-27T09:22:45.116Z,915.35
2018-06-27T09:23:45.077Z,915.32
2018-06-27T09:24:45.047Z,915.34
2018-06-27T09:25:45.008Z,915.33
2018-06-27T09:26:44.970Z,915.29
2018-06-27T09:27:44.940Z,915.29
2018-06-27T09:28:44.908Z,915.32
2018-06-27T09:29:44.935Z,915.29
2018-06-27T09:30:44.839Z,915.30
2018-06-27T09:31:44.808Z,915.35
2018-06-27T09:32:44.780Z,915.35
2018-06-27T09:33:44.946Z,915.37
2018-06-27T09:34:44.711Z,915.36
2018-06-27T09:35:44.682Z,915.38
2018-06-27T09:36:44.641Z,915.40
2018-06-27T09:37:44.607Z,915.42
2018-06-27T09:38:44.585Z,915.43
2018-06-27T09:39:46.444Z,915.42
2018-06-27T09:40:44.508Z,915.42
2018-06-27T09:41:44.477Z,915.45
2018-06-27T09:42:44.444Z,915.49
2018-06-27T09:43:44.410Z,915.57
2018-06-27T09:44:44.387Z,915.55
2018-06-27T09:45:44.396Z,915.57
2018-06-27T09:46:44.323Z,915.58
2018-06-27T09:47:44.375Z,915.55
2018-06-27T09:48:44.241Z,915.59
2018-06-27T09:49:44.215Z,915.58
2018-06-27T09:50:44.325Z,915.60
2018-06-27T09:51:44.148Z,915.56
2018-06-27T09:52:44.113Z,915.57
2018-06-27T09:53:44.090Z,915.57
2018-06-27T09:54:44.049Z,915.56
2018-06-27T09:55:44.061Z,915.61
2018-06-27T09:56:43.999Z,915.64
2018-06-27T09:57:43.944Z,915.60
2018-06-27T09:58:43.908Z,915.62
2018-06-27T09:59:43.875Z,915.64
2018-06-27T10:00:43.850Z,915.61
2018-06-27T10:01:43.814Z,915.61
2018-06-27T10:02:43.783Z,915.59
2018-06-27T10:03:43.747Z,915.61
2018-06-27T10:04:43.721Z,915.62
2018-06-27T10:05:43.697Z,915.64
2018-06-27T10:06:44.052Z,915.69
2018-06-27T10:07:43.634Z,915.69
2018-06-27T10:08:43.582Z,915.77
2018-06-27T10:09:43.558Z,915.67
2018-06-27T10:10:43.513Z,915.72
2018-06-27T10:11:43.487Z,915.71
2018-06-27T10:12:43.446Z,915.70
2018-06-27T10:13:43.419Z,915.74
2018-06-27T10:14:43.378Z,915.74
2018-06-27T10:15:43.362Z,915.70
2018-06-27T10:16:43.321Z,915.74
2018-06-27T10:17:43.281Z,915.73
2018-06-27T10:18:43.257Z,915.76
2018-06-27T10:19:43.214Z,915.74
2018-06-27T10:20:43.197Z,915.81
2018-06-27T10:21:43.148Z,915.75
2018-06-27T10:22:43.187Z,915.80
2018-06-27T10:23:43.082Z,915.82
2018-06-27T10:24:43.055Z,915.83
2018-06-27T10:25:43.025Z,915.90
2018-06-27T10:26:42.986Z,915.89
2018-06-27T10:27:42.953Z,915.87
2018-06-27T10:28:42.927Z,915.89
2018-06-27T10:29:42.887Z,915.89
2018-06-27T10:30:42.875Z,915.91
2018-06-27T10:31:42.826Z,915.88
2018-06-27T10:32:42.848Z,915.96
2018-06-27T10:33:42.762Z,915.99
2018-06-27T10:34:42.723Z,915.99
2018-06-27T10:35:42.743Z,916.01
2018-06-27T10:36:42.653Z,916.04
2018-06-27T10:37:42.627Z,916.05
2018-06-27T10:38:42.811Z,916.02
2018-06-27T10:39:42.637Z,916.04
2018-06-27T10:40:42.548Z,916.08
2018-06-27T10:41:42.503Z,916.06
2018-06-27T10:42:42.465Z,916.06
2018-06-27T10:43:42.436Z,916.07
2018-06-27T10:44:42.397Z,916.16
2018-06-27T10:45:42.379Z,916.18
2018-06-27T10:46:42.335Z,916.26
2018-06-27T10:47:42.302Z,916.25
2018-06-27T10:48:42.268Z,916.32
2018-06-27T10:49:42.239Z,916.36
2018-06-27T10:50:42.210Z,916.34
2018-06-27T10:51:42.168Z,916.38
2018-06-27T10:52:42.148Z,916.34
2018-06-27T10:53:42.108Z,916.43
2018-06-27T10:54:42.071Z,916.44
2018-06-27T10:55:42.135Z,916.45
2018-06-27T10:56:42.013Z,916.49
2018-06-27T10:57:41.979Z,916.41
2018-06-27T10:58:41.948Z,916.39
2018-06-27T10:59:41.931Z,916.45
2018-06-27T11:00:41.883Z,916.47
2018-06-27T11:01:41.860Z,916.50
2018-06-27T11:02:41.820Z,916.50
2018-06-27T11:03:41.788Z,916.48
2018-06-27T11:04:41.767Z,916.51
2018-06-27T11:05:41.723Z,916.50
2018-06-27T11:06:41.912Z,916.51
2018-06-27T11:07:41.655Z,916.50
2018-06-27T11:08:41.634Z,916.49
2018-06-27T11:09:41.593Z,916.50
2018-06-27T11:10:41.562Z,916.55
2018-06-27T11:11:41.535Z,916.56
2018-06-27T11:12:41.708Z,916.56
2018-06-27T11:13:41.468Z,916.61
2018-06-27T11:14:41.444Z,916.60
2018-06-27T11:15:41.407Z,916.56
2018-06-27T11:16:41.378Z,916.55
2018-06-27T11:17:41.344Z,916.58
2018-06-27T11:18:41.312Z,916.58
2018-06-27T11:19:41.280Z,916.61
2018-06-27T11:20:41.255Z,916.61
2018-06-27T11:21:41.221Z,916.60
2018-06-27T11:22:41.184Z,916.61
2018-06-27T11:23:41.406Z,916.64
2018-06-27T11:24:41.124Z,916.64
2018-06-27T11:25:41.093Z,916.68
2018-06-27T11:26:41.157Z,916.67
2018-06-27T11:27:41.036Z,916.62
2018-06-27T11:28:41.000Z,916.63
2018-06-27T11:29:40.969Z,916.64
2018-06-27T11:30:40.936Z,916.66
2018-06-27T11:31:40.908Z,916.65
2018-06-27T11:32:40.881Z,916.67
2018-06-27T11:33:41.192Z,916.68
2018-06-27T11:34:40.810Z,916.69
2018-06-27T11:35:40.793Z,916.68
2018-06-27T11:36:40.755Z,916.71
2018-06-27T11:37:40.719Z,916.71
2018-06-27T11:38:40.727Z,916.73
2018-06-27T11:39:40.956Z,916.69
2018-06-27T11:40:40.627Z,916.76
2018-06-27T11:41:40.597Z,916.79
2018-06-27T11:42:40.570Z,916.84
2018-06-27T11:43:40.537Z,916.81
2018-06-27T11:44:40.506Z,916.83
2018-06-27T11:45:40.673Z,916.82
2018-06-27T11:46:40.449Z,916.80
2018-06-27T11:47:40.410Z,916.84
2018-06-27T11:48:40.382Z,916.83
2018-06-27T11:49:40.355Z,916.84
2018-06-27T11:50:40.472Z,916.87
2018-06-27T11:51:40.292Z,916.91
2018-06-27T11:52:40.260Z,916.86
2018-06-27T11:53:40.242Z,916.88
2018-06-27T11:54:40.201Z,916.88
2018-06-27T11:55:40.168Z,916.86
2018-06-27T11:56:40.141Z,916.89
2018-06-27T11:57:40.107Z,916.87
2018-06-27T11:58:40.082Z,916.87
2018-06-27T11:59:40.052Z,916.90
2018-06-27T12:00:40.027Z,916.92
2018-06-27T12:01:40.002Z,916.88
2018-06-27T12:02:39.977Z,916.87
2018-06-27T12:03:39.966Z,916.90
2018-06-27T12:04:39.898Z,916.88
2018-06-27T12:05:39.872Z,916.86
2018-06-27T12:06:39.848Z,916.89
2018-06-27T12:07:39.837Z,916.89
2018-06-27T12:08:39.819Z,916.90
2018-06-27T12:09:39.772Z,916.88
2018-06-27T12:10:39.751Z,916.92
2018-06-27T12:11:39.867Z,916.92
2018-06-27T12:12:39.669Z,916.94
2018-06-27T12:13:39.641Z,916.96
2018-06-27T12:14:39.628Z,916.98
2018-06-27T12:15:39.597Z,916.92
2018-06-27T12:16:39.563Z,916.96
2018-06-27T12:17:39.678Z,916.94
2018-06-27T12:18:39.498Z,916.96
2018-06-27T12:19:39.480Z,916.95
2018-06-27T12:20:39.436Z,916.99
2018-06-27T12:21:39.409Z,916.94
2018-06-27T12:22:39.378Z,916.99
2018-06-27T12:23:39.338Z,916.96
2018-06-27T12:24:39.305Z,916.98
2018-06-27T12:25:39.276Z,916.97
2018-06-27T12:26:39.246Z,916.98
2018-06-27T12:27:39.223Z,916.99
2018-06-27T12:28:39.643Z,917.00
2018-06-27T12:29:39.190Z,917.04
2018-06-27T12:30:39.199Z,917.06
2018-06-27T12:31:39.118Z,917.04
2018-06-27T12:32:39.080Z,917.08